Time;durP1;ratioP1;P1;durP2;ratioP2;P2;SDS_P1;SDS_P2;PMS_P1;PMS_P2;Temp;Humidity;BMP_temperature;BMP_pressure;BME280_temperature;BME280_humidity;BME280_pressure;Samples;Min_cycle;Max_cycle;Signal;HPM_P1;HPM_P2
2023/07/01 00:02:19;;;;;;;10.10;4.90;;;;;;;15.53;100.00;100186.31;7392406;19;20411;-43
2023/07/01 00:04:49;;;;;;;8.70;2.80;;;;;;;15.55;100.00;100193.25;7366654;19;20442;-43
2023/07/01 00:07:19;;;;;;;7.43;3.00;;;;;;;15.58;100.00;100182.91;7392601;19;20408;-43
2023/07/01 00:09:48;;;;;;;7.03;3.20;;;;;;;15.61;100.00;100188.13;7367953;19;20428;-43
2023/07/01 00:12:20;;;;;;;7.97;3.20;;;;;;;15.62;100.00;100176.84;7392145;19;20415;-43
2023/07/01 00:14:50;;;;;;;7.57;3.20;;;;;;;15.64;100.00;100188.16;7363157;19;20439;-44
2023/07/01 00:17:20;;;;;;;6.80;3.03;;;;;;;15.69;100.00;100173.47;7392546;19;20522;-44
2023/07/01 00:19:50;;;;;;;9.67;2.80;;;;;;;15.73;100.00;100167.47;7364534;19;20427;-42
2023/07/01 00:22:19;;;;;;;5.00;2.77;;;;;;;15.71;100.00;100158.78;7389984;19;20411;-43
2023/07/01 00:24:49;;;;;;;5.87;3.20;;;;;;;15.74;100.00;100150.13;7364227;19;20437;-43
2023/07/01 00:27:21;;;;;;;9.47;2.80;;;;;;;15.78;100.00;100139.78;7390436;19;20408;-44
2023/07/01 00:29:51;;;;;;;5.07;2.67;;;;;;;15.79;100.00;100131.13;7364709;19;20415;-43
2023/07/01 00:32:20;;;;;;;4.20;2.40;;;;;;;15.81;100.00;100120.72;7389593;19;20943;-43
2023/07/01 00:34:50;;;;;;;5.03;2.60;;;;;;;15.82;100.00;100127.69;7362225;19;20447;-44
2023/07/01 00:37:20;;;;;;;7.43;3.60;;;;;;;15.85;100.00;100119.03;7388963;19;20763;-42
2023/07/01 00:39:49;;;;;;;5.60;2.87;;;;;;;15.88;100.00;100112.13;7365286;19;20480;-44
2023/07/01 00:42:21;;;;;;;6.70;3.10;;;;;;;15.93;100.00;100118.28;7389859;19;20943;-43
2023/07/01 00:44:51;;;;;;;7.43;2.67;;;;;;;15.97;100.00;100115.69;7363656;19;20502;-43
2023/07/01 00:47:21;;;;;;;8.37;2.60;;;;;;;16.02;100.00;100111.41;7387828;19;20404;-43
2023/07/01 00:49:50;;;;;;;16.60;7.23;;;;;;;16.00;100.00;100108.78;7365304;19;20431;-44
2023/07/01 00:52:20;;;;;;;9.03;5.23;;;;;;;16.03;100.00;100114.03;7389328;19;20773;-42
2023/07/01 00:54:50;;;;;;;12.60;5.87;;;;;;;16.09;100.00;100107.16;7363821;19;20537;-44
2023/07/01 00:57:22;;;;;;;6.30;2.90;;;;;;;16.14;100.00;100114.13;7388695;19;20439;-44
2023/07/01 00:59:51;;;;;;;6.70;3.23;;;;;;;16.12;100.00;100113.25;7370882;19;20550;-42
2023/07/01 01:02:24;;;;;;;7.17;2.10;;;;;;;16.10;100.00;100101.09;7395196;19;20432;-43
2023/07/01 01:05:02;;;;;;;5.13;2.20;;;;;;;16.09;100.00;100091.53;7368652;19;20824;-44
2023/07/01 01:07:35;;;;;;;6.77;3.40;;;;;;;16.06;100.00;100088.03;7393586;19;20430;-43
2023/07/01 01:10:08;;;;;;;5.57;2.53;;;;;;;16.02;100.00;100093.19;7368922;19;20427;-42
2023/07/01 01:12:41;;;;;;;6.55;2.53;;;;;;;15.99;100.00;100086.25;7252623;19;2741189;-43
2023/07/01 01:15:12;;;;;;;5.23;2.63;;;;;;;15.97;100.00;100077.56;7369129;19;20434;-44
2023/07/01 01:17:43;;;;;;;5.10;2.77;;;;;;;15.96;100.00;100078.44;7395580;19;20417;-43
2023/07/01 01:20:17;;;;;;;9.80;3.80;;;;;;;15.93;100.00;100070.56;7370192;19;20502;-43
2023/07/01 01:22:58;;;;;;;5.07;2.40;;;;;;;15.95;100.00;100066.28;7396058;19;20411;-43
2023/07/01 01:25:32;;;;;;;7.07;2.70;;;;;;;15.91;100.00;100073.13;7372172;19;21491;-44
2023/07/01 01:28:05;;;;;;;4.60;2.57;;;;;;;15.88;100.00;100067.03;7395989;19;20403;-44
2023/07/01 01:30:35;;;;;;;5.90;2.17;;;;;;;15.90;100.00;100071.38;7372596;19;20985;-45
2023/07/01 01:33:06;;;;;;;5.00;2.90;;;;;;;15.90;100.00;100062.72;7395459;19;20439;-43
2023/07/01 01:35:35;;;;;;;5.40;2.60;;;;;;;15.93;100.00;100052.38;7370817;19;20823;-43
2023/07/01 01:38:07;;;;;;;6.57;3.60;;;;;;;15.93;100.00;100055.84;7396565;19;20411;-43
2023/07/01 01:40:43;;;;;;;4.50;2.20;;;;;;;15.90;100.00;100049.72;7371300;19;21012;-44
2023/07/01 01:43:21;;;;;;;6.10;2.63;;;;;;;15.86;100.00;100042.75;7396532;19;20462;-43
2023/07/01 01:45:51;;;;;;;6.10;2.60;;;;;;;15.86;100.00;100048.81;7373142;19;21286;-42
2023/07/01 01:48:21;;;;;;;5.07;2.27;;;;;;;15.86;100.00;100037.53;7394319;19;20414;-43
2023/07/01 01:50:52;;;;;;;8.67;2.40;;;;;;;15.88;100.00;100041.00;7371902;19;20463;-43
2023/07/01 01:53:22;;;;;;;6.07;2.70;;;;;;;15.84;100.00;100040.13;7394485;19;20467;-44
2023/07/01 01:55:52;;;;;;;4.20;2.23;;;;;;;15.82;100.00;100034.03;7370268;19;20447;-44
2023/07/01 01:58:24;;;;;;;6.10;2.60;;;;;;;15.85;100.00;100036.66;7396798;19;20400;-43
2023/07/01 02:00:54;;;;;;;5.67;2.80;;;;;;;15.82;100.00;100035.75;7374174;19;20470;-44
2023/07/01 02:03:24;;;;;;;5.23;2.50;;;;;;;15.82;100.00;100031.44;7397230;19;20443;-44
2023/07/01 02:05:54;;;;;;;5.03;2.23;;;;;;;15.82;100.00;100027.97;7375334;19;20443;-44
2023/07/01 02:08:24;;;;;;;5.57;2.80;;;;;;;15.82;100.00;100035.75;7396824;19;20399;-44
2023/07/01 02:10:54;;;;;;;7.37;2.63;;;;;;;15.86;100.00;100027.13;7374495;19;20502;-43
2023/07/01 02:13:26;;;;;;;7.17;2.57;;;;;;;15.85;100.00;100038.41;7397037;19;21058;-43
2023/07/01 02:15:55;;;;;;;5.30;2.50;;;;;;;15.84;100.00;100039.28;7374225;19;20473;-43
2023/07/01 02:18:25;;;;;;;4.30;2.50;;;;;;;15.84;100.00;100026.25;7397762;19;20813;-44
2023/07/01 02:20:55;;;;;;;4.47;2.47;;;;;;;15.83;100.00;100027.13;7375370;19;20482;-44
2023/07/01 02:23:24;;;;;;;4.93;2.37;;;;;;;15.84;100.00;100028.88;7396973;19;20443;-43
2023/07/01 02:25:54;;;;;;;5.23;2.40;;;;;;;15.85;100.00;100025.41;7374126;19;20967;-44
2023/07/01 02:28:26;;;;;;;6.17;2.80;;;;;;;15.89;100.00;100027.19;7397279;19;20487;-44
2023/07/01 02:30:56;;;;;;;4.50;2.30;;;;;;;15.89;100.00;100032.38;7374533;19;20966;-43
2023/07/01 02:33:25;;;;;;;4.87;3.03;;;;;;;15.92;100.00;100032.44;7396357;19;20470;-43
2023/07/01 02:35:55;;;;;;;4.70;2.63;;;;;;;15.93;100.00;100039.38;7373836;19;20941;-43
2023/07/01 02:38:25;;;;;;;5.93;2.87;;;;;;;15.91;100.00;100036.72;7397632;19;20408;-44
2023/07/01 02:40:54;;;;;;;8.53;3.00;;;;;;;15.89;100.00;100028.03;7374099;19;20443;-44
2023/07/01 02:43:26;;;;;;;5.80;2.50;;;;;;;15.86;100.00;100021.94;7395842;19;20531;-42
2023/07/01 02:45:56;;;;;;;6.60;2.60;;;;;;;15.85;100.00;100021.06;7374487;19;20919;-43
2023/07/01 02:48:26;;;;;;;4.97;2.60;;;;;;;15.86;100.00;100017.63;7396467;19;20426;-44
2023/07/01 02:50:55;;;;;;;5.07;2.53;;;;;;;15.82;100.00;100009.75;7374875;19;20463;-44
2023/07/01 02:53:25;;;;;;;5.87;2.53;;;;;;;15.80;100.00;100005.41;7396126;19;20531;-43
2023/07/01 02:55:54;;;;;;;8.63;2.70;;;;;;;15.79;100.00;100016.69;7373261;19;20455;-45
2023/07/01 02:58:26;;;;;;;5.03;2.30;;;;;;;15.85;100.00;100010.66;7396028;19;20412;-44
2023/07/01 03:00:56;;;;;;;6.23;2.53;;;;;;;15.85;100.00;100009.78;7373943;19;20455;-44
2023/07/01 03:03:26;;;;;;;6.77;2.50;;;;;;;15.84;100.00;100008.06;7395868;19;20459;-43
2023/07/01 03:05:56;;;;;;;5.80;2.63;;;;;;;15.86;100.00;100003.72;7373895;19;20518;-43
2023/07/01 03:08:26;;;;;;;5.80;3.10;;;;;;;15.84;100.00;100019.31;7395801;19;21258;-44
2023/07/01 03:10:56;;;;;;;8.07;2.50;;;;;;;15.88;100.00;100012.41;7373513;19;20490;-44
2023/07/01 03:13:28;;;;;;;8.20;2.30;;;;;;;15.91;100.00;100021.09;7396290;19;21305;-45
2023/07/01 03:15:58;;;;;;;5.17;2.40;;;;;;;15.95;100.00;100031.59;7372884;19;20446;-44
2023/07/01 03:18:28;;;;;;;4.80;2.77;;;;;;;15.99;100.00;100065.44;7386475;19;21229;-44
2023/07/01 03:21:00;;;;;;;6.43;2.60;;;;;;;16.04;100.00;100066.34;7392646;19;20440;-45
2023/07/01 03:23:30;;;;;;;4.93;2.20;;;;;;;16.03;100.00;100071.53;7370278;19;20555;-43
2023/07/01 03:26:00;;;;;;;8.03;2.77;;;;;;;16.10;100.00;100088.94;7393111;19;20919;-41
2023/07/01 03:28:32;;;;;;;6.33;2.80;;;;;;;16.17;100.00;100095.94;7370064;19;20404;-43
2023/07/01 03:31:04;;;;;;;6.30;2.90;;;;;;;16.20;100.00;100097.69;7395283;19;21150;-43
2023/07/01 03:33:34;;;;;;;7.93;2.50;;;;;;;16.22;100.00;100098.59;7369685;19;20439;-43
2023/07/01 03:36:03;;;;;;;10.80;3.00;;;;;;;16.18;100.00;100091.59;7393245;19;20404;-44
2023/07/01 03:38:33;;;;;;;5.10;2.53;;;;;;;16.15;100.00;100096.78;7369862;19;20808;-44
2023/07/01 03:41:02;;;;;;;5.20;2.70;;;;;;;16.17;100.00;100084.66;7392137;19;20931;-44
2023/07/01 03:43:35;;;;;;;5.03;2.50;;;;;;;16.22;100.00;100102.91;7369215;19;20443;-44
2023/07/01 03:46:05;;;;;;;5.13;3.00;;;;;;;16.27;100.00;100109.03;7394964;19;20407;-42
2023/07/01 03:48:34;;;;;;;5.83;2.53;;;;;;;16.25;100.00;100108.16;7368815;19;20407;-42
2023/07/01 03:51:04;;;;;;;5.30;2.67;;;;;;;16.30;100.00;100104.72;7393804;19;20408;-42
2023/07/01 03:53:34;;;;;;;4.77;2.73;;;;;;;16.27;100.00;100098.63;7370466;19;21004;-44
2023/07/01 03:56:03;;;;;;;5.63;2.70;;;;;;;16.22;100.00;100093.38;7393527;19;20791;-44
2023/07/01 03:58:35;;;;;;;9.03;3.10;;;;;;;16.25;100.00;100088.19;7369617;19;20439;-43
2023/07/01 04:01:05;;;;;;;5.43;2.90;;;;;;;16.25;100.00;100082.97;7391605;19;20411;-43
2023/07/01 04:03:36;;;;;;;6.00;2.67;;;;;;;16.26;100.00;100089.06;7368467;19;20813;-44
2023/07/01 04:06:06;;;;;;;6.53;2.47;;;;;;;16.29;100.00;100094.28;7392377;19;20756;-43
2023/07/01 04:08:36;;;;;;;6.00;2.80;;;;;;;16.23;100.00;100089.03;7366633;19;20404;-44
2023/07/01 04:11:07;;;;;;;9.37;3.20;;;;;;;16.22;100.00;100088.16;7391504;19;20404;-44
2023/07/01 04:13:39;;;;;;;10.17;2.87;;;;;;;16.20;100.00;100076.84;7369154;19;20450;-44
2023/07/01 04:16:08;;;;;;;5.90;2.87;;;;;;;16.16;100.00;100068.16;7393571;19;20429;-44
2023/07/01 04:18:38;;;;;;;8.00;2.60;;;;;;;16.18;100.00;100071.66;7369199;19;20417;-44
2023/07/01 04:21:08;;;;;;;6.97;2.93;;;;;;;16.17;100.00;100064.72;7391973;19;20415;-44
2023/07/01 04:23:38;;;;;;;4.90;2.67;;;;;;;16.17;100.00;100063.84;7368387;19;20460;-43
2023/07/01 04:26:08;;;;;;;6.50;3.17;;;;;;;16.16;100.00;100065.56;7391791;19;20427;-43
2023/07/01 04:28:40;;;;;;;13.00;3.83;;;;;;;16.15;100.00;100058.63;7368114;19;20403;-43
2023/07/01 04:31:10;;;;;;;8.77;3.20;;;;;;;16.16;100.00;100047.34;7391944;19;20427;-43
2023/07/01 04:33:39;;;;;;;6.20;3.00;;;;;;;16.14;100.00;100056.00;7367333;19;20514;-43
2023/07/01 04:36:09;;;;;;;5.37;3.20;;;;;;;16.12;100.00;100055.13;7391936;19;20407;-43
2023/07/01 04:38:38;;;;;;;8.63;3.07;;;;;;;16.12;100.00;100069.00;7367653;19;20411;-43
2023/07/01 04:41:08;;;;;;;5.17;2.83;;;;;;;16.09;100.00;100052.50;7391592;19;20414;-43
2023/07/01 04:43:41;;;;;;;6.10;2.93;;;;;;;16.09;100.00;100044.72;7368953;19;20792;-43
2023/07/01 04:46:10;;;;;;;5.80;2.80;;;;;;;16.15;100.00;100034.34;7391450;19;20416;-43
2023/07/01 04:48:40;;;;;;;8.30;3.10;;;;;;;16.05;100.00;100029.06;7368414;19;20423;-43
2023/07/01 04:51:10;;;;;;;5.07;2.50;;;;;;;16.00;100.00;100015.13;7392806;19;20450;-43
2023/07/01 04:53:40;;;;;;;9.67;4.80;;;;;;;16.08;100.00;99998.72;7367279;19;20447;-43
2023/07/01 04:56:10;;;;;;;7.23;3.10;;;;;;;16.05;100.00;99996.97;7390820;19;20428;-43
2023/07/01 04:58:42;;;;;;;6.10;3.10;;;;;;;15.95;100.00;99990.84;7367949;19;20832;-43
2023/07/01 05:01:12;;;;;;;7.10;3.80;;;;;;;15.98;100.00;99990.84;7390250;19;20482;-43
2023/07/01 05:03:42;;;;;;;10.80;3.40;;;;;;;15.96;100.00;100005.59;7366482;19;20447;-43
2023/07/01 05:06:11;;;;;;;7.47;2.93;;;;;;;15.97;100.00;99996.91;7390806;19;20412;-43
2023/07/01 05:08:41;;;;;;;8.33;3.40;;;;;;;15.89;100.00;99991.63;7367694;19;20408;-43
2023/07/01 05:11:10;;;;;;;4.73;2.90;;;;;;;15.90;100.00;100001.16;7390759;19;20423;-43
2023/07/01 05:13:43;;;;;;;5.13;2.97;;;;;;;15.87;100.00;99997.66;7365649;19;20446;-42
2023/07/01 05:16:12;;;;;;;5.10;2.83;;;;;;;15.87;100.00;99989.84;7392881;19;20404;-42
2023/07/01 05:18:42;;;;;;;9.37;3.60;;;;;;;15.87;100.00;99998.53;7366594;19;20427;-43
2023/07/01 05:21:11;;;;;;;6.97;3.40;;;;;;;15.84;100.00;99987.25;7392542;19;20845;-43
2023/07/01 05:23:41;;;;;;;9.00;3.40;;;;;;;15.87;100.00;99997.66;7366455;19;20452;-43
2023/07/01 05:26:11;;;;;;;5.97;3.30;;;;;;;15.91;100.00;100005.50;7392157;19;20806;-43
2023/07/01 05:28:43;;;;;;;6.33;3.23;;;;;;;15.90;100.00;100010.72;7367093;19;20415;-42
2023/07/01 05:31:13;;;;;;;7.50;3.63;;;;;;;15.87;100.00;100002.88;7390696;19;20419;-44
2023/07/01 05:33:43;;;;;;;7.17;3.10;;;;;;;15.86;100.00;100003.72;7365388;19;21047;-44
2023/07/01 05:36:12;;;;;;;10.23;3.63;;;;;;;15.77;100.00;100015.81;7390985;19;20416;-42
2023/07/01 05:38:42;;;;;;;7.73;3.37;;;;;;;15.76;100.00;100001.06;7367861;19;20402;-44
2023/07/01 05:41:12;;;;;;;9.73;2.90;;;;;;;15.68;100.00;99996.66;7390185;19;20403;-43
2023/07/01 05:43:44;;;;;;;7.10;3.53;;;;;;;15.61;100.00;99985.31;7365884;19;20455;-44
2023/07/01 05:46:14;;;;;;;7.23;3.60;;;;;;;15.59;100.00;99963.66;7399730;19;20985;-43
2023/07/01 05:48:44;;;;;;;7.17;3.43;;;;;;;15.52;100.00;99950.59;7372709;19;20424;-43
2023/07/01 05:51:14;;;;;;;10.17;3.30;;;;;;;15.39;100.00;99928.81;7397332;19;20770;-43
2023/07/01 05:53:43;;;;;;;7.53;4.13;;;;;;;15.19;100.00;99894.88;7372308;19;21003;-44
2023/07/01 05:56:13;;;;;;;7.83;4.03;;;;;;;15.06;100.00;99874.81;7397205;19;20424;-43
2023/07/01 05:58:45;;;;;;;6.30;4.03;;;;;;;14.94;100.00;99836.63;7373833;19;20493;-43
2023/07/01 06:01:15;;;;;;;9.30;4.50;;;;;;;14.87;100.00;99808.84;7396667;19;20417;-43
2023/07/01 06:03:45;;;;;;;12.43;4.80;;;;;;;14.81;100.00;99778.50;7372223;19;20478;-44
2023/07/01 06:06:15;;;;;;;7.70;4.60;;;;;;;14.76;100.00;99768.09;7397797;19;20407;-43
2023/07/01 06:08:44;;;;;;;10.17;4.80;;;;;;;14.71;100.00;99755.03;7372433;19;21093;-43
2023/07/01 06:11:14;;;;;;;6.80;4.83;;;;;;;14.64;100.00;99739.38;7396997;19;20412;-43
2023/07/01 06:13:49;;;;;;;11.97;5.27;;;;;;;14.60;100.00;99730.69;7371615;19;20439;-43
2023/07/01 06:16:19;;;;;;;8.27;5.20;;;;;;;14.56;100.00;99728.94;7396418;19;21222;-44
2023/07/01 06:18:49;;;;;;;8.50;4.60;;;;;;;14.49;100.00;99729.72;7371770;19;20380;-44
2023/07/01 06:21:19;;;;;;;8.53;5.10;;;;;;;14.44;100.00;99747.84;7396190;19;21030;-44
2023/07/01 06:23:49;;;;;;;9.90;5.23;;;;;;;14.39;100.00;99755.59;7371920;19;20396;-43
2023/07/01 06:26:18;;;;;;;10.83;5.13;;;;;;;14.37;100.00;99793.66;7398715;19;20755;-43
2023/07/01 06:28:50;;;;;;;8.83;5.43;;;;;;;14.29;100.00;99816.91;7372883;19;20393;-44
2023/07/01 06:31:20;;;;;;;9.10;5.33;;;;;;;14.27;100.00;99834.19;7396450;19;20412;-42
2023/07/01 06:33:50;;;;;;;9.33;5.90;;;;;;;14.31;100.00;99842.88;7371113;19;20403;-43
2023/07/01 06:36:19;;;;;;;11.13;6.07;;;;;;;14.29;100.00;99862.72;7395934;19;20431;-42
2023/07/01 06:38:49;;;;;;;11.53;6.10;;;;;;;14.28;100.00;99894.72;7372210;19;20391;-43
2023/07/01 06:41:19;;;;;;;8.80;6.03;;;;;;;14.27;100.00;99917.22;7396258;19;20400;-43
2023/07/01 06:43:52;;;;;;;8.57;5.73;;;;;;;14.24;100.00;99937.03;7371701;19;21014;-39
2023/07/01 06:46:22;;;;;;;18.43;6.30;;;;;;;14.23;100.00;99961.22;7395836;19;20939;-43
2023/07/01 06:48:51;;;;;;;9.80;5.90;;;;;;;14.26;100.00;100003.66;7373545;19;20542;-43
2023/07/01 06:51:21;;;;;;;9.77;6.20;;;;;;;14.31;100.00;100040.91;7396216;19;20421;-44
2023/07/01 06:53:52;;;;;;;13.03;6.67;;;;;;;14.31;100.00;100060.81;7369938;19;20410;-43
2023/07/01 06:56:21;;;;;;;10.47;6.10;;;;;;;14.33;100.00;100064.31;7391939;19;20407;-43
2023/07/01 06:58:54;;;;;;;9.90;5.63;;;;;;;14.38;100.00;100083.41;7370551;19;21244;-43
2023/07/01 07:01:23;;;;;;;9.20;6.17;;;;;;;14.42;100.00;100098.16;7395672;19;20425;-43
2023/07/01 07:03:55;;;;;;;11.30;5.63;;;;;;;14.43;100.00;100120.69;7369741;19;20407;-44
2023/07/01 07:06:24;;;;;;;10.90;6.50;;;;;;;14.42;100.00;100124.13;7397583;19;20467;-44
2023/07/01 07:08:54;;;;;;;9.30;6.17;;;;;;;14.43;100.00;100125.00;7370622;19;20947;-43
2023/07/01 07:11:24;;;;;;;13.60;5.67;;;;;;;14.40;100.00;100125.81;7393767;19;20842;-40
2023/07/01 07:13:59;;;;;;;11.17;6.10;;;;;;;14.38;100.00;100117.16;7365517;19;21245;-41
2023/07/01 07:16:28;;;;;;;10.43;6.53;;;;;;;14.39;100.00;100118.88;7393394;19;21025;-43
2023/07/01 07:18:58;;;;;;;28.43;14.43;;;;;;;14.36;100.00;100117.97;7370646;19;20395;-44
2023/07/01 07:21:28;;;;;;;10.20;5.83;;;;;;;14.35;100.00;100111.03;7394924;19;20482;-44
2023/07/01 07:24:00;;;;;;;35.13;17.40;;;;;;;14.30;100.00;100098.84;7368785;19;20485;-43
2023/07/01 07:26:31;;;;;;;25.90;12.20;;;;;;;14.33;100.00;100116.19;7394903;19;20399;-43
2023/07/01 07:29:04;;;;;;;7.53;5.23;;;;;;;14.34;100.00;100098.88;7371483;19;20399;-46
2023/07/01 07:31:34;;;;;;;9.80;5.10;;;;;;;14.28;100.00;100094.50;7392969;19;20407;-43
2023/07/01 07:34:06;;;;;;;14.90;5.77;;;;;;;14.25;100.00;100108.28;7368893;19;20427;-43
2023/07/01 07:36:36;;;;;;;13.20;5.80;;;;;;;14.13;100.00;100116.75;7394260;19;20483;-43
2023/07/01 07:39:06;;;;;;;14.83;8.43;;;;;;;14.09;100.00;100130.50;7369284;19;20954;-43
2023/07/01 07:41:36;;;;;;;11.20;5.67;;;;;;;14.10;100.00;100150.41;7393160;19;20396;-43
2023/07/01 07:44:08;;;;;;;11.53;6.17;;;;;;;14.06;100.00;100151.22;7368504;19;20494;-43
2023/07/01 07:46:38;;;;;;;11.00;6.57;;;;;;;14.11;100.00;100149.53;7392885;19;20418;-44
2023/07/01 07:49:08;;;;;;;16.80;9.03;;;;;;;14.08;100.00;100133.06;7367970;19;20424;-43
2023/07/01 07:51:38;;;;;;;11.70;6.63;;;;;;;14.09;100.00;100130.50;7390383;19;20839;-44
2023/07/01 07:54:08;;;;;;;12.00;6.90;;;;;;;14.07;100.00;100108.84;7366618;19;20853;-43
2023/07/01 07:56:37;;;;;;;13.67;6.63;;;;;;;14.04;100.00;100054.31;7391551;19;20504;-43
2023/07/01 07:59:09;;;;;;;20.87;9.83;;;;;;;14.07;100.00;100012.00;7368480;19;20414;-43
2023/07/01 08:01:39;;;;;;;8.27;5.73;;;;;;;14.08;100.00;100004.25;7391514;19;20407;-43
2023/07/01 08:04:09;;;;;;;12.30;8.03;;;;;;;14.10;100.00;100044.03;7367629;19;20410;-43
2023/07/01 08:06:38;;;;;;;28.77;15.90;;;;;;;14.07;100.00;100100.19;7391207;19;20407;-43
2023/07/01 08:09:08;;;;;;;22.73;12.50;;;;;;;14.09;100.00;100081.22;7366966;19;20921;-43
2023/07/01 08:11:38;;;;;;;23.80;11.03;;;;;;;14.08;100.00;100066.50;7390060;19;20892;-43
2023/07/01 08:14:10;;;;;;;15.80;9.20;;;;;;;14.11;100.00;100040.59;7367736;19;20505;-43
2023/07/01 08:16:40;;;;;;;19.00;11.80;;;;;;;14.12;100.00;100015.56;7393661;19;20402;-42
2023/07/01 08:19:09;;;;;;;12.00;8.07;;;;;;;14.07;100.00;100005.13;7367219;19;20411;-44
2023/07/01 08:21:39;;;;;;;17.90;9.13;;;;;;;14.01;100.00;99992.06;7391461;19;20410;-44
2023/07/01 08:24:10;;;;;;;13.27;7.80;;;;;;;13.94;100.00;99985.88;7366395;19;20486;-43
2023/07/01 08:26:40;;;;;;;21.23;13.07;;;;;;;13.91;100.00;99976.34;7392427;19;20424;-43
2023/07/01 08:29:12;;;;;;;19.57;11.20;;;;;;;13.86;100.00;99978.00;7368514;19;20536;-44
2023/07/01 08:31:42;;;;;;;10.70;6.97;;;;;;;13.89;100.00;99980.63;7392083;19;20826;-43
2023/07/01 08:34:12;;;;;;;21.37;12.20;;;;;;;13.90;100.00;99984.97;7366645;19;20428;-43
2023/07/01 08:36:41;;;;;;;14.30;9.77;;;;;;;13.91;100.00;99970.28;7390979;19;20475;-43
2023/07/01 08:39:11;;;;;;;12.57;7.43;;;;;;;14.01;100.00;99971.31;7367244;19;20434;-44
2023/07/01 08:41:45;;;;;;;9.80;7.70;;;;;;;14.04;100.00;99960.97;7391426;19;20422;-43
2023/07/01 08:44:19;;;;;;;20.97;12.47;;;;;;;14.01;100.00;99956.59;7367270;19;21119;-43
2023/07/01 08:46:50;;;;;;;11.33;8.40;;;;;;;13.91;100.00;99946.94;7392846;19;20406;-44
2023/07/01 08:49:22;;;;;;;14.47;8.70;;;;;;;13.93;100.00;99946.97;7368564;19;20414;-44
2023/07/01 08:51:57;;;;;;;11.83;8.20;;;;;;;13.91;100.00;99934.00;7392548;19;20425;-43
2023/07/01 08:54:27;;;;;;;21.87;12.30;;;;;;;13.82;100.00;99901.00;7367143;19;20501;-43
2023/07/01 08:56:56;;;;;;;14.30;9.67;;;;;;;13.84;100.00;99885.50;7393599;19;20795;-43
2023/07/01 08:59:28;;;;;;;22.17;12.60;;;;;;;13.85;100.00;99882.91;7368012;19;21010;-43
2023/07/01 09:01:59;;;;;;;20.73;10.40;;;;;;;13.83;100.00;99879.41;7393300;19;20490;-43
2023/07/01 09:04:30;;;;;;;17.43;12.20;;;;;;;13.77;100.00;99884.50;7367303;19;20460;-43
2023/07/01 09:07:00;;;;;;;13.90;10.40;;;;;;;13.74;100.00;99876.72;7389082;19;20417;-43
2023/07/01 09:09:30;;;;;;;15.20;9.70;;;;;;;13.71;100.00;99874.94;7367222;19;20970;-41
2023/07/01 09:11:59;;;;;;;19.03;11.63;;;;;;;13.70;100.00;99882.69;7391906;19;20471;-43
2023/07/01 09:14:58;;;;;;;13.50;10.80;;;;;;;13.74;100.00;99884.50;7366796;19;20422;-44
2023/07/01 09:17:32;;;;;;;19.90;11.33;;;;;;;13.75;100.00;99875.84;7392374;19;20482;-43
2023/07/01 09:20:04;;;;;;;23.87;13.60;;;;;;;13.81;100.00;99877.66;7369043;19;20441;-41
2023/07/01 09:22:34;;;;;;;27.90;17.90;;;;;;;13.80;100.00;99881.97;7399841;19;20768;-44
2023/07/01 09:25:05;;;;;;;14.97;11.70;;;;;;;13.87;100.00;99893.28;7372282;19;20435;-40
2023/07/01 09:27:46;;;;;;;18.50;13.13;;;;;;;13.88;100.00;99893.31;7397610;19;20411;-41
2023/07/01 09:30:28;;;;;;;13.23;9.77;;;;;;;13.85;100.00;99893.25;7376055;19;20460;-43
2023/07/01 09:33:13;;;;;;;19.93;13.33;;;;;;;13.93;100.00;99895.97;7400084;19;20908;-41
2023/07/01 09:35:45;;;;;;;18.73;13.20;;;;;;;13.87;100.00;99893.28;7374121;19;20433;-43
2023/07/01 09:38:15;;;;;;;22.90;16.33;;;;;;;13.85;100.00;99898.44;7398128;19;20936;-43
2023/07/01 09:40:45;;;;;;;16.67;12.23;;;;;;;13.89;100.00;99907.16;7372162;19;20530;-43
2023/07/01 09:43:15;;;;;;;19.07;13.70;;;;;;;13.89;100.00;99910.63;7398624;19;20429;-43
2023/07/01 09:45:57;;;;;;;15.93;12.90;;;;;;;13.92;100.00;99920.16;7374690;19;20427;-43
2023/07/01 09:48:27;;;;;;;16.40;12.00;;;;;;;13.87;100.00;99922.69;7398584;19;20522;-42
2023/07/01 09:51:03;;;;;;;19.07;12.90;;;;;;;13.98;100.00;99915.06;7374293;19;20445;-43
2023/07/01 09:53:34;;;;;;;15.83;12.90;;;;;;;13.96;100.00;99923.69;7373077;19;20435;-43
2023/07/01 09:56:06;;;;;;;22.67;16.60;;;;;;;13.88;100.00;99911.47;7395255;19;20410;-44
2023/07/01 09:58:36;;;;;;;18.13;14.33;;;;;;;13.92;100.00;99917.56;7372208;19;20408;-43
2023/07/01 10:01:09;;;;;;;17.40;13.10;;;;;;;13.96;100.00;99921.97;7395584;19;20415;-43
2023/07/01 10:03:38;;;;;;;21.50;14.80;;;;;;;13.94;100.00;99913.28;7372959;19;20441;-44
2023/07/01 10:06:08;;;;;;;24.53;16.30;;;;;;;13.94;100.00;99918.47;7398305;19;20409;-43
2023/07/01 10:08:38;;;;;;;22.30;14.30;;;;;;;14.00;100.00;99915.09;7372147;19;20499;-43
2023/07/01 10:11:11;;;;;;;21.77;14.20;;;;;;;14.02;100.00;99913.41;7396053;19;20411;-44
2023/07/01 10:13:53;;;;;;;41.33;26.30;;;;;;;14.03;100.00;99917.72;7371044;19;20880;-43
2023/07/01 10:16:26;;;;;;;26.33;13.53;;;;;;;14.00;100.00;99913.38;7395302;19;20410;-43
2023/07/01 10:18:57;;;;;;;18.93;13.73;;;;;;;14.02;100.00;99903.91;7373985;19;20412;-43
2023/07/01 10:21:33;;;;;;;16.67;12.23;;;;;;;14.08;100.00;99910.00;7396438;19;20500;-43
2023/07/01 10:24:03;;;;;;;21.17;13.53;;;;;;;14.11;100.00;99905.72;7370704;19;20453;-44
2023/07/01 10:26:38;;;;;;;19.77;14.07;;;;;;;14.12;100.00;99912.69;7396319;19;20411;-43
2023/07/01 10:29:38;;;;;;;22.70;13.40;;;;;;;14.15;100.00;99906.66;7371645;19;20398;-42
2023/07/01 10:32:34;;;;;;;20.20;14.00;;;;;;;14.11;100.00;99905.72;7395921;19;20423;-43
2023/07/01 10:35:16;;;;;;;21.20;14.00;;;;;;;14.14;100.00;99903.19;7361493;19;20570;-42
2023/07/01 10:37:46;;;;;;;17.60;13.77;;;;;;;14.14;100.00;99903.19;7395400;19;20419;-42
2023/07/01 10:40:44;;;;;;;22.90;15.30;;;;;;;14.22;100.00;99912.78;7370182;19;20459;-43
2023/07/01 10:43:25;;;;;;;18.97;13.90;;;;;;;14.22;100.00;99907.59;7395844;19;20451;-44
2023/07/01 10:46:10;;;;;;;19.13;14.07;;;;;;;14.18;100.00;99917.94;7373923;19;20443;-43
2023/07/01 10:48:43;;;;;;;17.73;14.30;;;;;;;14.16;100.00;99924.81;7372180;19;20418;-41
2023/07/01 10:51:14;;;;;;;14.17;12.20;;;;;;;14.20;100.00;99922.28;7393049;19;20483;-43
2023/07/01 10:54:02;;;;;;;19.03;14.60;;;;;;;14.25;100.00;99918.03;7370627;19;20451;-43
2023/07/01 10:56:33;;;;;;;16.37;12.87;;;;;;;14.22;100.00;99912.78;7394487;19;20409;-41
2023/07/01 10:59:20;;;;;;;22.27;13.80;;;;;;;14.25;100.00;99918.88;7369960;19;20413;-43
2023/07/01 11:01:52;;;;;;;23.40;15.27;;;;;;;14.34;100.00;99923.34;7394214;19;20422;-42
2023/07/01 11:04:26;;;;;;;18.37;15.50;;;;;;;14.36;100.00;99919.03;7369098;19;20430;-42
2023/07/01 11:06:57;;;;;;;21.23;15.73;;;;;;;14.42;100.00;99920.84;7393873;19;20965;-43
2023/07/01 11:09:32;;;;;;;20.40;15.83;;;;;;;14.38;100.00;99912.16;7370287;19;20467;-43
2023/07/01 11:12:03;;;;;;;17.50;12.57;;;;;;;14.38;100.00;99919.94;7394639;19;20406;-44
2023/07/01 11:14:34;;;;;;;19.90;13.80;;;;;;;14.41;100.00;99909.56;7369200;19;20506;-43
2023/07/01 11:17:09;;;;;;;17.63;13.60;;;;;;;14.42;100.00;99916.50;7396991;19;20475;-43
2023/07/01 11:19:44;;;;;;;20.70;14.27;;;;;;;14.43;100.00;99913.09;7368402;19;20415;-43
2023/07/01 11:22:15;;;;;;;18.57;14.00;;;;;;;14.41;100.00;99919.09;7393872;19;21219;-43
2023/07/01 11:24:44;;;;;;;14.20;11.77;;;;;;;14.42;100.00;99916.50;7368008;19;20431;-43
2023/07/01 11:27:14;;;;;;;18.20;13.70;;;;;;;14.45;100.00;99921.75;7394308;19;20419;-42
2023/07/01 11:29:47;;;;;;;20.33;13.97;;;;;;;14.52;100.00;99929.63;7368813;19;20427;-45
2023/07/01 11:32:17;;;;;;;35.10;22.47;;;;;;;14.45;100.00;99929.53;7396674;19;20408;-44
2023/07/01 11:34:50;;;;;;;40.00;24.40;;;;;;;14.48;100.00;99920.03;7366470;19;20815;-43